Flight Track Log - Related Links

Times and Time Zones

All times are in EDT time to prevent confusion due to time zone crossing. See the UPS104 flight status page for this flight to view local times or setup timezone preferences in your user account.

Time Position Orientation Groundspeed Altitude Reporting Facility
EDT Latitude Longitude Course Direction KTS MPH feet Rate Location/Type
Mon 12:32:53 PM 61.1925 -150.0106 345° North 178 205 200  Level FlightAware ADS-B
Mon 12:33:01 PM 61.2008 -150.0152 348° North 170 196 700 3,214 Climbing FlightAware ADS-B
Mon 12:33:21 PM 61.2119 -150.0213 336° Northwest 169 194 1,700 2,870 Climbing FlightAware ADS-B
Mon 12:33:24 PM 61.2162 -150.0263 326° Northwest 178 205 1,800 1,304 Climbing FlightAware ADS-B
Mon 12:33:44 PM 61.2314 -150.0494 323° Northwest 209 241 2,200 1,385 Climbing FlightAware ADS-B
Mon 12:34:03 PM 61.2466 -150.0742 322° Northwest 233 268 2,700 2,053 Climbing FlightAware ADS-B
Mon 12:34:22 PM 61.2631 -150.1014 320° Northwest 244 281 3,500 2,600 Climbing FlightAware ADS-B
Mon 12:34:33 PM 61.2711 -150.1201 301° West 253 291 4,000 2,182 Climbing FlightAware ADS-B
Mon 12:34:44 PM 61.2759 -150.1452 282° West 263 303 4,300 2,710 Climbing FlightAware ADS-B
Mon 12:35:04 PM 61.2781 -150.1926 273° West 267 307 5,400 3,231 Climbing FlightAware ADS-B
Mon 12:35:23 PM 61.2792 -150.2456 273° West 274 315 6,400 3,000 Climbing FlightAware ADS-B
Mon 12:35:44 PM 61.2805 -150.2997 272° West 279 321 7,400 3,220 Climbing FlightAware ADS-B
Mon 12:36:04 PM 61.2812 -150.3543 271° West 281 323 8,600 3,158 Climbing FlightAware ADS-B
Mon 12:36:22 PM 61.2817 -150.4041 271° West 287 330 9,400 2,375 Climbing FlightAware ADS-B
Mon 12:36:52 PM 61.2820 -150.4891 271° West 309 356 10,500 1,700 Climbing FlightAware ADS-B
Mon 12:37:22 PM 61.2827 -150.5830 271° West 347 399 11,100 1,600 Climbing FlightAware ADS-B
Mon 12:37:52 PM 61.2830 -150.6870 270° West 373 429 12,100 2,400 Climbing FlightAware ADS-B
Mon 12:38:22 PM 61.2833 -150.7877 270° West 378 435 13,500 2,900 Climbing FlightAware ADS-B
Mon 12:38:52 PM 61.2838 -150.9059 271° West 384 442 15,000 2,857 Climbing FlightAware ADS-B
Mon 12:39:25 PM 61.2842 -151.0227 270° West 392 451 16,500 2,667 Climbing FlightAware ADS-B
Mon 12:39:55 PM 61.2844 -151.1409 270° West 398 458 17,800 2,522 Climbing FlightAware ADS-B
Mon 12:40:34 PM 61.2847 -151.2941 270° West 407 468 19,400 2,400 Climbing FlightAware ADS-B
Mon 12:41:05 PM 61.2848 -151.4122 270° West 411 473 20,600 2,262 Climbing FlightAware ADS-B
Mon 12:41:35 PM 61.2846 -151.5307 270° West 417 480 21,700 2,100 Climbing FlightAware ADS-B
Mon 12:42:05 PM 61.2845 -151.6461 270° West 423 487 22,700 2,100 Climbing FlightAware ADS-B
Mon 12:42:35 PM 61.2842 -151.7749 270° West 427 491 23,800 2,100 Climbing FlightAware ADS-B
Mon 12:43:05 PM 61.2838 -151.8959 270° West 431 496 24,800 1,800 Climbing FlightAware ADS-B
Mon 12:43:35 PM 61.2832 -152.0217 270° West 438 504 25,600 1,645 Climbing FlightAware ADS-B
Mon 12:44:07 PM 61.2840 -152.1610 271° West 445 512 26,500 1,645 Climbing FlightAware ADS-B
Mon 12:44:37 PM 61.2849 -152.2858 271° West 450 518 27,300 2,100 Climbing FlightAware ADS-B
Mon 12:45:07 PM 61.2855 -152.4135 270° West 443 510 28,600 2,382 Climbing FlightAware ADS-B
Mon 12:45:45 PM 61.2860 -152.5765 270° West 437 503 30,000 2,118 Climbing FlightAware ADS-B
Mon 12:46:15 PM 61.2862 -152.6966 270° West 434 499 31,000 1,900 Climbing FlightAware ADS-B
Mon 12:46:45 PM 61.2862 -152.8271 270° West 429 494 31,900 1,791 Climbing FlightAware ADS-B
Mon 12:47:22 PM 61.2861 -152.9731 270° West 424 488 33,000 1,629 Climbing FlightAware ADS-B
Mon 12:47:55 PM 61.2859 -153.1112 270° West 420 483 33,800 822 Climbing FlightAware ADS-B
Mon 12:48:35 PM 61.2855 -153.2750 270° West 429 494 34,000 169 Climbing FlightAware ADS-B
Mon 12:49:06 PM 61.2851 -153.4011 270° West 433 498 34,000  Level FlightAware ADS-B
Mon 12:49:36 PM 61.2846 -153.5140 269° West 436 502 34,000  Level FlightAware ADS-B
Mon 12:50:16 PM 61.2836 -153.6932 269° West 439 505 34,000  Level FlightAware ADS-B
Mon 12:50:46 PM 61.2828 -153.8208 269° West 438 504 34,000  Level FlightAware ADS-B
Mon 12:51:16 PM 61.2819 -153.9450 269° West 438 504 34,000  Level FlightAware ADS-B
Mon 12:51:46 PM 61.2810 -154.0570 269° West 438 504 34,000  Level FlightAware ADS-B
Mon 12:52:22 PM 61.2794 -154.2240 269° West 439 505 34,000  Level FlightAware ADS-B
Mon 12:52:52 PM 61.2781 -154.3427 269° West 438 504 34,000  Level FlightAware ADS-B
Mon 12:53:22 PM 61.2767 -154.4690 269° West 439 505 34,000  Level FlightAware ADS-B
Mon 12:53:56 PM 61.2748 -154.6171 268° West 439 505 34,000  Level FlightAware ADS-B
Mon 12:54:37 PM 61.2726 -154.7872 268° West 439 505 34,000  Level FlightAware ADS-B
Mon 12:55:21 PM 61.2698 -154.9765 268° West 439 505 34,000  Level FlightAware ADS-B
Mon 12:55:52 PM 61.2676 -155.1047 268° West 439 505 34,000  Level FlightAware ADS-B
Mon 12:56:36 PM 61.2645 -155.2918 268° West 438 504 34,000  Level FlightAware ADS-B
Mon 12:57:07 PM 61.2622 -155.4194 268° West 438 504 34,000  Level FlightAware ADS-B
Mon 12:57:52 PM 61.2585 -155.6066 268° West 438 504 34,000  Level FlightAware ADS-B
Mon 12:58:37 PM 61.2545 -155.7980 267° West 439 505 34,000  Level FlightAware ADS-B
Mon 12:59:21 PM 61.2509 -155.9791 269° West 438 504 34,000  Level FlightAware ADS-B
Mon 12:59:52 PM 61.2507 -156.1057 270° West 438 504 34,000  Level FlightAware ADS-B
Mon 01:00:22 PM 61.2511 -156.2083 271° West 437 503 34,000  Level FlightAware ADS-B
Mon 01:00:52 PM 61.2519 -156.3631 271° West 437 503 34,000  Level FlightAware ADS-B
Mon 01:01:22 PM 61.2500 -156.4667 271° West 430 495 34,000  Level Anchorage Center
Mon 01:02:22 PM 61.2500 -156.7333 270° West 430 495 34,000  Level Anchorage Center
Mon 01:03:22 PM 61.2500 -156.9667 270° West 430 495 34,000  Level Anchorage Center
Mon 01:04:22 PM 61.2500 -157.2333 270° West 430 495 34,000  Level Anchorage Center
Mon 01:06:22 PM 61.2500 -157.7167 270° West 430 495 34,000  Level Anchorage Center
Mon 01:07:22 PM 61.2333 -157.9833 263° West 430 495 34,000  Level Anchorage Center
Mon 01:08:23 PM 61.2333 -158.2167 270° West 430 495 34,000  Level Anchorage Center
Mon 01:09:23 PM 61.2333 -158.4667 270° West 430 495 34,000  Level Anchorage Center
Mon 01:10:23 PM 61.2333 -158.7333 270° West 430 495 34,000  Level Anchorage Center
Mon 01:11:23 PM 61.2333 -158.9833 270° West 430 495 34,000  Level Anchorage Center
Mon 01:13:23 PM 61.2167 -159.4833 266° West 440 506 34,000  Level Anchorage Center
Mon 01:14:23 PM 61.2167 -159.7500 270° West 440 506 34,000  Level Anchorage Center
Mon 01:15:23 PM 61.2167 -160.0000 270° West 440 506 34,000  Level Anchorage Center
Mon 01:22:07 PM 61.1690 -161.6980 266° West 438 504 34,000  Level FlightAware ADS-B
Mon 01:22:31 PM 61.1661 -161.7791 266° West 439 505 34,000  Level FlightAware ADS-B
Mon 01:23:47 PM 61.1534 -162.1225 266° West 441 507 34,000  Level FlightAware ADS-B
Mon 01:24:10 PM 61.1497 -162.2156 266° West 442 509 34,000  Level FlightAware ADS-B
Mon 01:24:52 PM 61.1424 -162.3988 266° West 443 510 34,000  Level FlightAware ADS-B
Mon 01:25:21 PM 61.1375 -162.5187 265° West 444 511 34,000  Level FlightAware ADS-B
Mon 01:25:49 PM 61.1329 -162.6278 265° West 444 511 34,000  Level FlightAware ADS-B
Mon 01:26:40 PM 61.1233 -162.8511 265° West 445 512 34,000  Level FlightAware ADS-B
Mon 01:27:02 PM 61.1221 -162.8779 265° West 445 512 34,000  Level FlightAware ADS-B
Mon 01:29:29 PM 61.0455 -163.5082 254° West 443 510 34,000  Level FlightAware ADS-B
Mon 01:31:31 PM 60.9710 -164.0238 254° West 440 506 34,000  Level FlightAware ADS-B
Mon 01:32:16 PM 60.9431 -164.2126 253° West 439 505 34,000  Level FlightAware ADS-B
Mon 01:32:30 PM 60.9368 -164.2548 254° West 439 505 34,000  Level FlightAware ADS-B
Mon 01:33:20 PM 60.9056 -164.4636 253° West 436 502 34,000  Level FlightAware ADS-B
Mon 01:33:31 PM 60.8993 -164.5058 253° West 436 502 34,000  Level FlightAware ADS-B
Mon 01:34:17 PM 60.8711 -164.6915 253° West 436 502 34,000  Level FlightAware ADS-B
Mon 01:34:46 PM 60.8539 -164.8038 253° West 435 501 34,000  Level FlightAware ADS-B
Mon 01:35:20 PM 60.8335 -164.9362 253° West 435 501 34,000  Level FlightAware ADS-B
Mon 01:35:46 PM 60.8172 -165.0414 253° West 435 501 34,000  Level FlightAware ADS-B
Mon 01:36:19 PM 60.7975 -165.1673 253° West 435 501 34,000  Level FlightAware ADS-B
Mon 01:36:50 PM 60.7819 -165.2663 252° West 436 502 34,000  Level FlightAware ADS-B
Mon 01:37:20 PM 60.7603 -165.4025 253° West 438 504 34,000  Level FlightAware ADS-B
Mon 01:38:26 PM 60.7167 -165.6500 253° West 430 495 34,000  Level Anchorage Center
Mon 01:39:26 PM 60.6667 -165.8833 246° West 430 495 34,000  Level Anchorage Center
Mon 01:40:26 PM 60.6333 -166.1333 255° West 430 495 34,000  Level Anchorage Center
Mon 01:41:27 PM 60.6000 -166.3667 254° West 440 506 34,000  Level Anchorage Center
Mon 01:42:27 PM 60.5500 -166.6000 247° West 440 506 34,000  Level Anchorage Center
Mon 01:43:26 PM 60.5167 -166.8333 254° West 440 506 34,000  Level Anchorage Center
Mon 01:44:32 PM 60.4833 -167.0500 253° West 430 495 34,000  Level Anchorage Center
Mon 01:45:32 PM 60.4333 -167.3000 248° West 450 518 34,000  Level Anchorage Center
Mon 01:46:32 PM 60.3833 -167.5500 248° West 460 529 34,000  Level Anchorage Center
Mon 01:47:32 PM 60.3500 -167.7833 254° West 430 495 34,000  Level Anchorage Center
Mon 01:48:32 PM 60.3000 -167.9667 241° Southwest 420 483 34,000  Level Anchorage Center
Mon 01:49:32 PM 60.2500 -168.2667 252° West 450 518 34,000  Level Anchorage Center
Mon 01:50:32 PM 60.2167 -168.5000 254° West 450 518 34,000  Level Anchorage Center
Mon 01:51:32 PM 60.1667 -168.7333 247° West 440 506 34,000  Level Anchorage Center
Mon 01:52:32 PM 60.1167 -168.9667 247° West 440 506 34,000  Level Anchorage Center
Mon 01:53:32 PM 60.0833 -169.2000 254° West 450 518 34,000  Level Anchorage Center
Mon 01:54:32 PM 60.0333 -169.4500 248° West 460 529 34,000  Level Anchorage Center
Mon 01:55:33 PM 60.0000 -169.6333 250° West 470 541 34,000  Level Anchorage Center
Mon 01:56:33 PM 59.9500 -169.9167 251° West 460 529 34,000  Level Anchorage Center
Mon 01:57:33 PM 59.9000 -170.1667 248° West 460 529 34,000  Level Anchorage Center
Mon 01:58:32 PM 59.8500 -170.4000 247° West 450 518 34,000  Level Anchorage Center
Mon 02:00:33 PM 59.7500 -170.8500 248° West 460 529 34,000  Level Anchorage Center
Mon 02:01:33 PM 59.7000 -171.1000 248° West 460 529 34,000  Level Anchorage Center
Mon 02:07:48 PM 59.4167 -172.5000 247° West 450 518 34,000  Level Anchorage Center
Mon 02:08:48 PM 59.3667 -172.7167 246° West 440 506 34,000  Level Anchorage Center
Mon 02:09:49 PM 59.3167 -172.9500 247° West 450 518 34,000  Level Anchorage Center
Mon 02:10:48 PM 59.2667 -173.1667 246° West 440 506 34,000  Level Anchorage Center
Mon 02:11:00 PM 59.1491 -173.7460 249° West  Level FlightAware Approximate
Mon 02:11:49 PM 59.2167 -173.4000 247° West 450 518 34,000  Level Anchorage Center
Mon 02:12:00 PM 59.0996 -173.9740 247° West  Level FlightAware Approximate
Mon 02:12:49 PM 59.1667 -173.6167 246° West 440 506 34,000  Level Anchorage Center
Mon 02:13:00 PM 59.0497 -174.2013 247° West  Level FlightAware Approximate
Mon 02:13:49 PM 59.1167 -173.8500 247° West 450 518 34,000  Level Anchorage Center
Mon 02:14:49 PM 59.0833 -174.0667 253° West 440 506 34,000  Level Anchorage Center
Mon 02:15:49 PM 59.0333 -174.3000 247° West 440 506 34,000  Level Anchorage Center
Mon 02:16:49 PM 58.9667 -174.5167 239° Southwest 460 529 34,000  Level Anchorage Center
Mon 02:17:49 PM 58.9333 -174.7500 255° West 450 518 34,000  Level Anchorage Center
Mon 02:18:49 PM 58.8833 -174.9667 246° West 450 518 34,000  Level Anchorage Center
Mon 02:19:49 PM 58.8333 -175.1833 246° West 440 506 34,000  Level Anchorage Center
Mon 02:20:49 PM 58.7667 -175.4000 239° Southwest 450 518 34,000  Level Anchorage Center
Mon 02:21:49 PM 58.7333 -175.6167 254° West 440 506 34,000  Level Anchorage Center
Mon 02:22:49 PM 58.6833 -175.8500 248° West 450 518 34,000  Level Anchorage Center
Mon 02:25:05 PM 58.5667 -176.3167 245° Southwest 450 518 34,000  Level Anchorage Center
Mon 02:26:05 PM 58.5000 -176.5333 240° Southwest 450 518 34,000  Level Anchorage Center
Mon 02:27:05 PM 58.4500 -176.7500 246° West 440 506 34,000  Level Anchorage Center
Mon 02:28:05 PM 58.4167 -176.9167 249° West 440 506 34,000  Level Anchorage Center
Mon 02:30:34 PM 58.2833 -177.5000 244° Southwest 453 521 34,000  Level Anchorage Center
Mon 02:40:22 PM 57.7500 -179.5333 243° Southwest 446 513 34,000  Level Anchorage Center
Mon 02:49:49 PM 57.2000 178.5333 241° Southwest 441 507 34,000  Level Anchorage Center
Mon 02:55:49 PM 56.8333 177.3500 240° Southwest 463 533 34,000  Level Anchorage Center
Mon 02:59:31 PM 56.5833 176.5833 239° Southwest 464 534 34,000  Level Anchorage Center
Mon 03:08:57 PM 55.9333 174.7167 237° Southwest 440 506 34,000  Level Anchorage Center
Mon 03:09:00 PM 55.9168 174.6193 238° Southwest 464 534 34,000  Level FlightAware Transoceanic
Mon 03:09:57 PM 55.8833 174.5333 244° Southwest 460 529 34,000  Level Anchorage Center
Mon 03:10:00 PM 55.8484 174.4266 238° Southwest 464 534 34,000  Level FlightAware Transoceanic
Mon 03:10:57 PM 55.8000 174.3000 238° Southwest 480 552 34,000  Level Anchorage Center
Mon 03:11:00 PM 55.7798 174.2346 237° Southwest 464 534 34,000  Level FlightAware Transoceanic
Mon 03:11:57 PM 55.7167 174.1000 234° Southwest 470 541 34,000  Level Anchorage Center
Mon 03:12:00 PM 55.7109 174.0434 237° Southwest 464 534 34,000  Level FlightAware Transoceanic
Mon 03:12:57 PM 55.6667 173.9333 242° Southwest 460 529 34,000  Level Anchorage Center
Mon 03:13:00 PM 55.6416 173.8527 237° Southwest 464 534 34,000  Level FlightAware Transoceanic
Mon 03:13:57 PM 55.5833 173.7333 234° Southwest 460 529 34,000  Level Anchorage Center
Mon 03:14:00 PM 55.5721 173.6628 237° Southwest 464 534 34,000  Level FlightAware Transoceanic
Mon 03:14:57 PM 55.5333 173.5500 244° Southwest 470 541 34,000  Level Anchorage Center
Mon 03:15:57 PM 55.4500 173.3500 234° Southwest 460 529 34,000  Level Anchorage Center
Mon 03:16:57 PM 55.3833 173.1833 235° Southwest 470 541 34,000  Level Anchorage Center
Mon 03:17:57 PM 55.3167 172.9833 240° Southwest 460 529 34,000  Level Anchorage Center
Mon 03:18:58 PM 55.2333 172.7667 236° Southwest 470 541 34,000  Level Anchorage Center
Mon 03:19:58 PM 55.1667 172.6000 235° Southwest 470 541 34,000  Level Anchorage Center
Mon 03:20:58 PM 55.0833 172.4000 234° Southwest 460 529 34,000  Level Anchorage Center
Mon 03:21:58 PM 55.0167 172.2333 235° Southwest 470 541 34,000  Level Anchorage Center
Mon 03:22:58 PM 54.9333 172.0333 234° Southwest 470 541 34,000  Level Anchorage Center
Mon 03:23:58 PM 54.8833 171.8667 243° Southwest 460 529 34,000  Level Anchorage Center
Mon 03:24:58 PM 54.8000 171.6667 234° Southwest 470 541 34,000  Level Anchorage Center
Mon 03:25:58 PM 54.7333 171.5000 235° Southwest 470 541 34,000  Level Anchorage Center
Mon 03:26:58 PM 54.6500 171.3000 234° Southwest 480 552 34,000  Level Anchorage Center
Mon 03:27:58 PM 54.5667 171.1000 234° Southwest 460 529 34,000  Level Anchorage Center
Mon 03:28:58 PM 54.5000 170.9333 235° Southwest 480 552 34,000  Level Anchorage Center
Mon 03:29:58 PM 54.4000 170.7500 227° Southwest 480 552 34,000  Level Anchorage Center
Mon 03:30:58 PM 54.3333 170.5833 236° Southwest 490 564 34,000  Level Anchorage Center
Mon 03:31:58 PM 54.2500 170.3833 235° Southwest 470 541 34,000  Level Anchorage Center
Mon 03:32:58 PM 54.1833 170.2333 233° Southwest 480 552 34,000  Level Anchorage Center
Mon 03:33:58 PM 54.1000 170.0333 235° Southwest 480 552 34,000  Level Anchorage Center
Mon 03:34:59 PM 54.0167 169.8333 235° Southwest 470 541 34,000  Level Anchorage Center
Mon 03:35:58 PM 53.9500 169.6833 233° Southwest 480 552 34,000  Level Anchorage Center
Mon 03:36:59 PM 53.8500 169.4833 230° Southwest 470 541 34,000  Level Anchorage Center
Mon 03:37:59 PM 53.8000 169.3500 238° Southwest 440 506 34,000  Level Anchorage Center
Mon 03:38:59 PM 53.7000 169.1500 230° Southwest 470 541 34,000  Level Anchorage Center
Mon 03:39:59 PM 53.6500 168.9833 243° Southwest 470 541 34,000  Level Anchorage Center
Mon 03:44:00 PM 53.4167 168.2333 240° Southwest 465 535 34,000  Level Anchorage Center
Mon 03:47:28 PM 53.1833 167.5833 239° Southwest 468 539 34,000  Level Anchorage Center
Mon 03:57:07 PM 52.5167 165.8000 238° Southwest 475 547 34,000  Level Anchorage Center
Mon 04:06:40 PM 51.8333 164.0500 236° Southwest 467 537 34,000  Level Anchorage Center
Mon 04:09:00 PM 51.6500 163.6500 236° Southwest 473 544 34,000  Level Anchorage Center
Mon 04:16:16 PM 51.1167 162.3833 235° Southwest 474 545 34,000  Level Anchorage Center
Mon 04:25:55 PM 50.3833 160.7500 232° Southwest 482 555 34,000  Level Anchorage Center
Mon 04:28:05 PM 50.2000 160.3833 234° Southwest 488 562 34,000  Level Anchorage Center
Mon 04:29:00 PM 50.1201 160.2097 234° Southwest 474 545 34,000  Level FlightAware Transoceanic
Mon 04:30:00 PM 50.0399 160.0366 234° Southwest 474 545 34,000  Level FlightAware Transoceanic
Mon 04:31:00 PM 49.9595 159.8641 234° Southwest 474 545 34,000  Level FlightAware Transoceanic
Mon 04:32:00 PM 49.8788 159.6921 234° Southwest 482 555 34,000  Level FlightAware Transoceanic
Mon 04:33:00 PM 49.7979 159.5208 234° Southwest 482 555 34,000  Level FlightAware Transoceanic
Mon 04:34:00 PM 49.7167 159.3500 233° Southwest 488 562 34,000  Level FlightAware Transoceanic
Mon 04:35:00 PM 49.6336 159.1805 233° Southwest 488 562 34,000  Level FlightAware Transoceanic
Mon 04:36:00 PM 49.5503 159.0116 233° Southwest 488 562 34,000  Level FlightAware Transoceanic
Mon 04:37:00 PM 49.4668 158.8432 233° Southwest 488 562 34,000  Level FlightAware Transoceanic
Mon 04:38:00 PM 49.3830 158.6754 232° Southwest 488 562 34,000  Level FlightAware Transoceanic
Mon 04:39:00 PM 49.2989 158.5082 232° Southwest 488 562 34,000  Level FlightAware Transoceanic
Mon 04:40:00 PM 49.2146 158.3416 232° Southwest 488 562 34,000  Level FlightAware Transoceanic
Mon 04:41:00 PM 49.1301 158.1755 232° Southwest 488 562 34,000  Level FlightAware Transoceanic
Mon 04:42:00 PM 49.0454 158.0100 232° Southwest 488 562 34,000  Level FlightAware Transoceanic
Mon 04:43:00 PM 48.9604 157.8450 232° Southwest 488 562 34,000  Level FlightAware Transoceanic
Mon 04:44:00 PM 48.8752 157.6806 232° Southwest 488 562 34,000  Level FlightAware Transoceanic
Mon 04:45:00 PM 48.7897 157.5168 232° Southwest 488 562 34,000  Level FlightAware Transoceanic
Mon 04:46:00 PM 48.7040 157.3536 231° Southwest 488 562 34,000  Level FlightAware Transoceanic
Mon 04:47:00 PM 48.6181 157.1909 231° Southwest 488 562 34,000  Level FlightAware Transoceanic
Mon 04:48:00 PM 48.5320 157.0287 231° Southwest 488 562 34,000  Level FlightAware Transoceanic
Mon 04:49:00 PM 48.4456 156.8671 231° Southwest 488 562 34,000  Level FlightAware Transoceanic
Mon 04:50:00 PM 48.3590 156.7060 231° Southwest 488 562 34,000  Level FlightAware Transoceanic
Mon 04:51:00 PM 48.2722 156.5455 231° Southwest 488 562 34,000  Level FlightAware Transoceanic
Mon 04:52:00 PM 48.1851 156.3856 231° Southwest 488 562 34,000  Level FlightAware Transoceanic
Mon 04:53:00 PM 48.0979 156.2262 231° Southwest 488 562 34,000  Level FlightAware Transoceanic
Mon 04:54:00 PM 48.0104 156.0673 230° Southwest 488 562 34,000  Level FlightAware Transoceanic
Mon 04:55:00 PM 47.9227 155.9089 230° Southwest 488 562 34,000  Level FlightAware Transoceanic
Mon 04:56:00 PM 47.8348 155.7511 230° Southwest 488 562 34,000  Level FlightAware Transoceanic
Mon 04:57:00 PM 47.7466 155.5939 230° Southwest 488 562 34,000  Level FlightAware Transoceanic
Mon 04:58:00 PM 47.6583 155.4371 230° Southwest 488 562 34,000  Level FlightAware Transoceanic
Mon 04:59:00 PM 47.5697 155.2809 230° Southwest 488 562 34,000  Level FlightAware Transoceanic
Mon 05:00:00 PM 47.4809 155.1253 230° Southwest 488 562 34,000  Level FlightAware Transoceanic
Mon 05:01:00 PM 47.3920 154.9701 230° Southwest 488 562 34,000  Level FlightAware Transoceanic
Mon 05:02:00 PM 47.3028 154.8155 230° Southwest 488 562 34,000  Level FlightAware Transoceanic
Mon 05:03:00 PM 47.2134 154.6614 229° Southwest 488 562 34,000  Level FlightAware Transoceanic
Mon 05:04:00 PM 47.1238 154.5078 229° Southwest 488 562 34,000  Level FlightAware Transoceanic
Mon 05:05:00 PM 47.0340 154.3547 229° Southwest 488 562 34,000  Level FlightAware Transoceanic
Mon 05:06:00 PM 46.9439 154.2022 229° Southwest 488 562 34,000  Level FlightAware Transoceanic
Mon 05:07:00 PM 46.8537 154.0501 229° Southwest 488 562 34,000  Level FlightAware Transoceanic
Mon 05:08:00 PM 46.7633 153.8986 229° Southwest 488 562 34,000  Level FlightAware Transoceanic
Mon 05:09:00 PM 46.6727 153.7476 229° Southwest 488 562 34,000  Level FlightAware Transoceanic
Mon 05:10:00 PM 46.5819 153.5970 229° Southwest 488 562 34,000  Level FlightAware Transoceanic
Mon 05:11:00 PM 46.4909 153.4470 229° Southwest 488 562 34,000  Level FlightAware Transoceanic
Mon 05:12:00 PM 46.3997 153.2975 228° Southwest 488 562 34,000  Level FlightAware Transoceanic
Mon 05:13:00 PM 46.3083 153.1485 228° Southwest 488 562 34,000 23 Level FlightAware Transoceanic
Mon 05:14:00 PM 46.2231 153.0104 228° Southwest  Level FlightAware Approximate
Mon 05:15:00 PM 46.1378 152.8728 228° Southwest  Level FlightAware Approximate
Mon 05:16:00 PM 46.1438 152.8837 228° Southwest  Level FlightAware Approximate
Mon 05:17:00 PM 46.0578 152.7471 228° Southwest  Level FlightAware Approximate
Mon 05:18:00 PM 45.9717 152.6109 228° Southwest  Level FlightAware Approximate
Mon 05:19:00 PM 45.8854 152.4752 228° Southwest  Level FlightAware Approximate
Mon 05:20:00 PM 45.7989 152.3398 228° Southwest  Level FlightAware Approximate
Mon 05:21:00 PM 45.7123 152.2049 227° Southwest  Level FlightAware Approximate
Mon 05:22:00 PM 45.6255 152.0704 227° Southwest  Level FlightAware Approximate
Mon 05:23:00 PM 45.5385 151.9364 227° Southwest  Level FlightAware Approximate
Mon 05:24:00 PM 45.4514 151.8027 227° Southwest  Level FlightAware Approximate
Mon 05:25:00 PM 45.3642 151.6694 227° Southwest  Level FlightAware Approximate
Mon 05:26:00 PM 45.2768 151.5366 227° Southwest  Level FlightAware Approximate
Mon 05:27:00 PM 45.1892 151.4042 227° Southwest  Level FlightAware Approximate
Mon 05:28:00 PM 45.1015 151.2722 227° Southwest  Level FlightAware Approximate
Mon 05:29:00 PM 45.0136 151.1405 227° Southwest  Level FlightAware Approximate
Mon 05:30:00 PM 44.9256 151.0093 227° Southwest  Level FlightAware Approximate
Mon 05:31:00 PM 44.8374 150.8785 226° Southwest  Level FlightAware Approximate
Mon 05:32:00 PM 44.7491 150.7481 226° Southwest  Level FlightAware Approximate
Mon 05:33:00 PM 44.6607 150.6181 226° Southwest  Level FlightAware Approximate
Mon 05:34:00 PM 44.5721 150.4885 226° Southwest  Level FlightAware Approximate
Mon 05:35:00 PM 44.4833 150.3592 226° Southwest  Level FlightAware Approximate
Mon 05:36:00 PM 44.3944 150.2304 226° Southwest  Level FlightAware Approximate
Mon 05:37:00 PM 44.3054 150.1020 226° Southwest  Level FlightAware Approximate
Mon 05:38:00 PM 44.2162 149.9739 226° Southwest  Level FlightAware Approximate
Mon 05:39:00 PM 44.1268 149.8463 226° Southwest  Level FlightAware Approximate
Mon 05:40:00 PM 44.0373 149.7190 226° Southwest  Level FlightAware Approximate
Mon 05:41:00 PM 43.9477 149.5921 226° Southwest  Level FlightAware Approximate
Mon 05:42:00 PM 43.8580 149.4656 225° Southwest  Level FlightAware Approximate
Mon 05:43:00 PM 43.7681 149.3394 225° Southwest  Level FlightAware Approximate
Mon 05:44:00 PM 43.6781 149.2137 225° Southwest  Level FlightAware Approximate
Mon 05:45:00 PM 43.5879 149.0883 225° Southwest  Level FlightAware Approximate
Mon 05:46:00 PM 43.4976 148.9633 225° Southwest  Level FlightAware Approximate
Mon 05:47:00 PM 43.4071 148.8387 225° Southwest  Level FlightAware Approximate
Mon 05:48:00 PM 43.3165 148.7145 225° Southwest  Level FlightAware Approximate
Mon 05:49:00 PM 43.2257 148.5907 225° Southwest  Level FlightAware Approximate
Mon 05:50:00 PM 43.1349 148.4672 225° Southwest  Level FlightAware Approximate
Mon 05:51:00 PM 43.0438 148.3441 225° Southwest  Level FlightAware Approximate
Mon 05:52:00 PM 42.9527 148.2214 225° Southwest  Level FlightAware Approximate
Mon 05:53:00 PM 42.8614 148.0990 225° Southwest  Level FlightAware Approximate
Mon 05:54:00 PM 42.7700 147.9770 224° Southwest  Level FlightAware Approximate
Mon 05:55:00 PM 42.6785 147.8554 224° Southwest  Level FlightAware Approximate
Mon 05:56:00 PM 42.5868 147.7341 224° Southwest  Level FlightAware Approximate
Mon 05:57:00 PM 42.4950 147.6131 224° Southwest  Level FlightAware Approximate
Mon 05:58:00 PM 42.4031 147.4926 224° Southwest  Level FlightAware Approximate
Mon 05:59:00 PM 42.3118 147.3713 225° Southwest  Level FlightAware Approximate
Mon 06:00:00 PM 42.2206 147.2501 225° Southwest  Level FlightAware Approximate
Mon 06:01:00 PM 42.1293 147.1293 224° Southwest  Level FlightAware Approximate
Mon 06:02:00 PM 42.0378 147.0088 224° Southwest  Level FlightAware Approximate
Mon 06:03:00 PM 41.9462 146.8886 224° Southwest  Level FlightAware Approximate
Mon 06:04:00 PM 41.8540 146.7695 224° Southwest  Level FlightAware Approximate
Mon 06:05:00 PM 41.7614 146.6510 224° Southwest  Level FlightAware Approximate
Mon 06:06:00 PM 41.6688 146.5329 224° Southwest  Level FlightAware Approximate
Mon 06:07:00 PM 41.5760 146.4151 224° Southwest  Level FlightAware Approximate
Mon 06:08:00 PM 41.4831 146.2976 223° Southwest  Level FlightAware Approximate
Mon 06:09:00 PM 41.3900 146.1805 223° Southwest  Level FlightAware Approximate
Mon 06:10:00 PM 41.2969 146.0637 223° Southwest  Level FlightAware Approximate
Mon 06:11:00 PM 41.2036 145.9473 223° Southwest  Level FlightAware Approximate
Mon 06:12:00 PM 41.1102 145.8311 223° Southwest  Level FlightAware Approximate
Mon 06:13:00 PM 41.0167 145.7154 223° Southwest  Level FlightAware Approximate
Mon 06:14:00 PM 40.9231 145.5999 223° Southwest  Level FlightAware Approximate
Mon 06:15:00 PM 40.8293 145.4848 223° Southwest  Level FlightAware Approximate
Mon 06:16:00 PM 40.7355 145.3699 223° Southwest  Level FlightAware Approximate
Mon 06:17:00 PM 40.6415 145.2555 223° Southwest  Level FlightAware Approximate
Mon 06:18:00 PM 40.5475 145.1413 223° Southwest  Level FlightAware Approximate
Mon 06:19:00 PM 40.4533 145.0275 223° Southwest  Level FlightAware Approximate
Mon 06:20:00 PM 40.3751 144.8963 238° Southwest  Level FlightAware Approximate
Mon 06:21:00 PM 40.3070 144.7542 238° Southwest  Level FlightAware Approximate
Mon 06:22:00 PM 40.2388 144.6124 238° Southwest  Level FlightAware Approximate
Mon 06:23:00 PM 40.1703 144.4709 238° Southwest  Level FlightAware Approximate
Mon 06:24:00 PM 40.1017 144.3297 238° Southwest  Level FlightAware Approximate
Mon 06:25:00 PM 40.0329 144.1887 238° Southwest  Level FlightAware Approximate
Mon 06:26:00 PM 39.9640 144.0481 237° Southwest  Level FlightAware Approximate
Mon 06:27:00 PM 39.8948 143.9077 237° Southwest  Level FlightAware Approximate
Mon 06:28:00 PM 39.8257 143.7675 238° Southwest  Level FlightAware Approximate
Mon 06:29:00 PM 39.7581 143.6261 238° Southwest  Level FlightAware Approximate
Mon 06:30:00 PM 39.6903 143.4851 238° Southwest  Level FlightAware Approximate
Mon 06:31:00 PM 39.6224 143.3443 238° Southwest  Level FlightAware Approximate
Mon 06:32:00 PM 39.5542 143.2038 238° Southwest  Level FlightAware Approximate
Mon 06:33:00 PM 39.4860 143.0636 238° Southwest  Level FlightAware Approximate
Mon 06:34:00 PM 39.4175 142.9236 238° Southwest  Level FlightAware Approximate
Mon 06:35:00 PM 39.3489 142.7840 238° Southwest  Level FlightAware Approximate
Mon 06:36:00 PM 39.2800 142.6446 238° Southwest  Level FlightAware Approximate
Mon 06:37:00 PM 39.2100 142.5065 230° Southwest  Level FlightAware Approximate
Mon 06:38:00 PM 39.1269 142.3810 230° Southwest  Level FlightAware Approximate
Mon 06:39:00 PM 39.0437 142.2558 229° Southwest  Level FlightAware Approximate
Mon 06:40:00 PM 38.9604 142.1309 229° Southwest  Level FlightAware Approximate
Mon 06:40:31 PM 38.1283 140.3383 243° Southwest 496 571 36,000  Level FlightAware ADS-B
Mon 06:41:52 PM 38.0423 140.1310 243° Southwest 496 571 36,000  Level FlightAware ADS-B
Mon 06:42:30 PM 38.0016 140.0335 243° Southwest 496 571 36,000  Level FlightAware ADS-B
Mon 06:43:12 PM 37.9554 139.9232 243° Southwest 497 572 36,000  Level FlightAware ADS-B
Mon 06:43:51 PM 37.9127 139.8213 243° Southwest 497 572 36,000  Level FlightAware ADS-B
Mon 06:44:32 PM 37.8683 139.7162 243° Southwest 497 572 36,000  Level FlightAware ADS-B
Mon 06:45:11 PM 37.8255 139.6150 243° Southwest 497 572 36,000  Level FlightAware ADS-B
Mon 06:45:51 PM 37.7819 139.5122 243° Southwest 497 572 36,000  Level FlightAware ADS-B
Mon 06:46:32 PM 37.7380 139.4090 243° Southwest 497 572 36,000  Level FlightAware ADS-B
Mon 06:47:12 PM 37.6939 139.3055 243° Southwest 497 572 36,000  Level FlightAware ADS-B
Mon 06:47:48 PM 37.6540 139.2124 243° Southwest 497 572 36,000  Level FlightAware ADS-B
Mon 06:48:32 PM 37.6050 139.0983 242° Southwest 502 578 36,000  Level FlightAware ADS-B
Mon 06:49:11 PM 37.5624 138.9994 242° Southwest 502 578 36,000  Level FlightAware ADS-B
Mon 06:49:50 PM 37.5189 138.8990 241° Southwest 502 578 36,000  Level FlightAware ADS-B
Mon 06:50:30 PM 37.4746 138.7968 241° Southwest 502 578 36,000  Level FlightAware ADS-B
Mon 06:51:08 PM 37.4325 138.6998 241° Southwest 503 579 36,000  Level FlightAware ADS-B
Mon 06:51:46 PM 37.3900 138.6025 241° Southwest 502 578 36,000  Level FlightAware ADS-B
Mon 06:52:32 PM 37.3418 138.4848 245° Southwest 497 572 36,000  Level FlightAware ADS-B
Mon 06:53:12 PM 37.3018 138.3805 245° Southwest 495 570 36,000  Level FlightAware ADS-B
Mon 06:53:52 PM 37.2612 138.2765 245° Southwest 495 570 36,000  Level FlightAware ADS-B
Mon 06:54:28 PM 37.2247 138.1839 244° Southwest 495 570 36,000  Level FlightAware ADS-B
Mon 06:55:11 PM 37.1807 138.0733 243° Southwest 498 573 36,000  Level FlightAware ADS-B
Mon 06:55:48 PM 37.1424 137.9778 243° Southwest 497 572 36,000  Level FlightAware ADS-B
Mon 06:56:27 PM 37.1018 137.8768 243° Southwest 497 572 36,000  Level FlightAware ADS-B
Mon 06:57:27 PM 37.0412 137.7259 243° Southwest 497 572 36,000  Level FlightAware ADS-B
Mon 06:58:09 PM 36.9967 137.6155 243° Southwest 496 571 36,000  Level FlightAware ADS-B
Mon 06:58:52 PM 36.9528 137.5067 243° Southwest 496 571 36,000  Level FlightAware ADS-B
Mon 06:59:32 PM 36.9115 137.4050 243° Southwest 496 571 36,000  Level FlightAware ADS-B
Mon 07:00:10 PM 36.8719 137.3076 243° Southwest 496 571 36,000  Level FlightAware ADS-B
Mon 07:00:52 PM 36.8287 137.2019 243° Southwest 496 571 36,000  Level FlightAware ADS-B
Mon 07:01:26 PM 36.7932 137.1149 243° Southwest 495 570 36,000  Level FlightAware ADS-B
Mon 07:02:20 PM 36.7364 136.9767 243° Southwest 495 570 36,000  Level FlightAware ADS-B
Mon 07:03:31 PM 36.6629 136.7987 243° Southwest 496 571 36,000  Level FlightAware ADS-B
Mon 07:04:32 PM 36.5980 136.6425 243° Southwest 496 571 36,000  Level FlightAware ADS-B
Mon 07:07:00 PM 36.3703 136.3645 245° Southwest  Level FlightAware Approximate
Mon 07:08:00 PM 36.3171 136.2201 245° Southwest  Level FlightAware Approximate
Mon 07:09:00 PM 36.2637 136.0758 245° Southwest  Level FlightAware Approximate
Mon 07:10:00 PM 36.2102 135.9318 245° Southwest  Level FlightAware Approximate
Mon 07:11:00 PM 36.1564 135.7880 245° Southwest  Level FlightAware Approximate
Mon 07:12:00 PM 36.1026 135.6443 245° Southwest  Level FlightAware Approximate
Mon 07:13:00 PM 36.0485 135.5009 245° Southwest  Level FlightAware Approximate
Mon 07:14:00 PM 35.9943 135.3576 245° Southwest  Level FlightAware Approximate
Mon 07:15:00 PM 35.9398 135.2146 245° Southwest  Level FlightAware Approximate
Mon 07:16:00 PM 35.8853 135.0717 245° Southwest  Level FlightAware Approximate
Mon 07:17:00 PM 35.8236 134.9337 244° Southwest  Level FlightAware Approximate
Mon 07:18:00 PM 35.7669 134.7923 244° Southwest  Level FlightAware Approximate
Mon 07:19:00 PM 35.7160 134.6478 248° West  Level FlightAware Approximate
Mon 07:20:00 PM 35.6622 134.5050 245° Southwest  Level FlightAware Approximate
Mon 07:21:00 PM 35.6075 134.3627 245° Southwest  Level FlightAware Approximate
Mon 07:22:00 PM 35.5491 134.2228 241° Southwest  Level FlightAware Approximate
Mon 07:23:00 PM 35.4698 134.1969 141° Southeast  Level FlightAware Approximate
Mon 07:24:00 PM 35.3715 134.2972 136° Southeast  Level FlightAware Approximate
Mon 07:25:00 PM 35.2783 134.4045 144° Southeast  Level FlightAware Approximate
Mon 07:26:00 PM 35.1748 134.4965 144° Southeast  Level FlightAware Approximate
Mon 07:27:00 PM 35.0786 134.5990 135° Southeast  Level FlightAware Approximate
Mon 07:28:00 PM 34.9821 134.7013 141° Southeast  Level FlightAware Approximate
Mon 07:29:00 PM 34.8772 134.7895 141° Southeast  Level FlightAware Approximate
Mon 07:30:00 PM 34.7784 134.8884 141° Southeast  Level FlightAware Approximate
Mon 07:31:00 PM 34.6795 134.9872 141° Southeast  Level FlightAware Approximate
Mon 07:32:00 PM 34.5767 135.0766 129° Southeast  Level FlightAware Approximate
Mon 07:33:00 PM 34.4785 135.1715 140° Southeast  Level FlightAware Approximate
Mon 07:34:00 PM 34.4167 135.2333 140° Southeast  Level FlightAware Approximate
Mon 07:35:00 PM 34.4273 135.2441 140° Southeast  Level Estimated
Mon 07:36:00 PM 34.4273 135.2441 140° Southeast  Level Estimated
Mon 07:37:00 PM 34.4273 135.2441 140° Southeast  Level Estimated
Mon 07:38:00 PM 34.4273 135.2441 140° Southeast  Level Estimated
Mon 07:39:00 PM 34.4273 135.2441 140° Southeast  Level Estimated
Mon 07:40:00 PM 34.4273 135.2441 140° Southeast  Level Estimated
Mon 07:41:00 PM 34.4273 135.2441 140° Southeast  Level Estimated
Mon 07:42:00 PM 34.4273 135.2441 140° Southeast  Level Estimated
Mon 07:43:00 PM 34.4273 135.2441 140° Southeast  Level Estimated
Mon 07:44:00 PM 34.4273 135.2441 140° Southeast  Level Estimated
Mon 07:45:00 PM 34.4273 135.2441 140° Southeast  Level Estimated
Mon 07:46:00 PM 34.4273 135.2441 140° Southeast  Level Estimated
Mon 07:47:00 PM 34.4273 135.2441 140° Southeast  Level Estimated
Mon 07:48:00 PM 34.4273 135.2441 140° Southeast  Level Estimated
Mon 07:49:00 PM 34.4273 135.2441 140° Southeast  Level Estimated
Mon 07:50:00 PM 34.4273 135.2441 140° Southeast  Level Estimated
Mon 07:51:00 PM 34.4273 135.2441 140° Southeast  Level Estimated
Mon 07:52:00 PM 34.4273 135.2441 140° Southeast  Level Estimated
Mon 07:53:00 PM 34.4273 135.2441 140° Southeast  Level Estimated
Mon 07:54:00 PM 34.4273 135.2441 140° Southeast  Level Estimated
Mon 07:55:00 PM 34.4273 135.2441 140° Southeast  Level Estimated
Mon 07:56:00 PM 34.4273 135.2441 140° Southeast  Level Estimated
Mon 07:57:00 PM 34.4273 135.2441 140° Southeast  Level Estimated
Mon 07:58:00 PM 34.4273 135.2441 140° Southeast  Level Estimated
Mon 07:59:00 PM 34.4273 135.2441 140° Southeast  Level Estimated

Login

Don't have an account? Register now (free) for customized features, flight alerts, and more!